Terminal Aerodrome Forecast
Issued by NWS Charleston, SC

Home | Current Version | Previous Version | Text Only | Print | Product List | Glossary On
Versions: 1 2 3 4 5 6 7 8 9 10 11 12 13 14 15 16 17 18 19 20 21
000
FTUS42 KCHS 042320
TAFSAV
TAF
KSAV 042320Z 0500/0524 20010KT P6SM SCT060 BKN080
     FM050100 20005KT P6SM SCT060 BKN150
     FM051500 24006KT P6SM SCT060 BKN120
     FM052000 19010KT P6SM SCT050=

USA.gov is the U.S. government's official web portal to all federal, state and local government web resources and services.